AirNav   Pilot Hours Calculator
 
 1130 users online  

M18 Hope Municipal Airport
Hope, Arkansas, USA

GOING TO HOPE?


FAA INFORMATION EFFECTIVE 19 MAY 2022

Location

FAA Identifier: M18
Lat/Long: 33-43-11.9321N 093-39-32.0534W
33-43.198868N 093-39.534223W
33.7199811,-93.6589037
(estimated)
Elevation: 359.2 ft. / 109.5 m (surveyed)
Variation: 03E (2000)
From city: 4 miles NW of HOPE, AR
Time zone: UTC -5 (UTC -6 during Standard Time)
Zip code: 71801

Airport Operations

Airport use: Open to the public
Activation date: 07/1944
Control tower: no
ARTCC: FORT WORTH CENTER
FSS: JONESBORO FLIGHT SERVICE STATION
NOTAMs facility: JBR (NOTAM-D service available)
Attendance: MON-FRI 0800-1700
FOR SVC AFT HRS CALL 870-777-3434 (HOPE P.D.).
Wind indicator: lighted
Segmented circle: yes
Lights: DUSK-DAWN. MIRL RY 16/34 OPER DUSK-2200; AFT 2200 ACTVT - CTAF.
Beacon: white-green (lighted land airport)
Operates sunset to sunrise.

Airport Communications

CTAF/UNICOM: 122.8
  • APCH/DEP CTL SVC PRVDD BY FORT WORTH ARTCC (ZFW) ON FREQS 123.925/269.475 (TEXARKANA RCAG).

Nearby radio navigation aids

VOR radial/distance  VOR name  Freq  Var
TXKr052/24.1TEXARKANA VORTAC116.3007E

 
NDB name  Hdg/Dist  Freq  Var  ID
HOPEat field36203EHPC .... .--. -.-.

Airport Services

Fuel available: 100LL JET-A
100LL:SELF-SERVE FUEL AVBL 24 HRS (100LL & JET A)
Parking: hangars and tiedowns
Airframe service: MINOR
Powerplant service: MINOR

Runway Information

Runway 16/34

Dimensions: 5501 x 100 ft. / 1677 x 30 m
Surface: concrete, in good condition
Weight bearing capacity: 
Single wheel: 40.0
Double wheel: 55.0
Double tandem: 105.0
Runway edge lights: medium intensity
NSTD MIRL - LGTS LCTD APRXLY 35 FT FM MARKED RY EDGE.
Runway edge markings: CNTRLN AND THR MKGS FADED.
RUNWAY 16  RUNWAY 34
Latitude: 33-43.659208N33-42.773768N
Longitude: 093-39.411795W093-39.176868W
Elevation: 359.2 ft.340.4 ft.
Traffic pattern: leftleft
Runway heading: 164 magnetic, 167 true344 magnetic, 347 true
Markings: nonprecision, in poor conditionnonprecision, in poor condition
Visual slope indicator: 2-light PAPI on left (3.00 degrees glide path)2-light PAPI on left (3.00 degrees glide path)
Runway end identifier lights: yesyes
Touchdown point: yes, no lightsyes, no lights
Obstructions: 32 ft. tree, 1300 ft. from runway, 330 ft. left of centerline, 34:1 slope to clear29 ft. trees, 1200 ft. from runway, 34:1 slope to clear

Runway 4/22

Dimensions: 5301 x 100 ft. / 1616 x 30 m
Surface: concrete, in fair condition
Weight bearing capacity: 
Single wheel: 40.0
Double wheel: 55.0
Double tandem: 105.0
Runway edge markings: CNTRLN AND THR MKGS FADED.
RUNWAY 4  RUNWAY 22
Latitude: 33-42.886167N33-43.475000N
Longitude: 093-40.169667W093-39.396667W
Elevation: 330.0 ft.351.0 ft.
Traffic pattern: leftleft
Runway heading: 045 magnetic, 048 true225 magnetic, 228 true
Displaced threshold: 1190 ft.344 ft.
Markings: nonprecision, in poor conditionnonprecision, in poor condition
Touchdown point: yes, no lightsyes, no lights
Obstructions: 50 ft. trees, 250 ft. from runway, 1:1 slope to clear
APCH RATIO FROM DSPLCD THR 28:1.
none

Airport Ownership and Management from official FAA records

Ownership: Publicly-owned
Owner: CITY OF HOPE
PO BOX 667
HOPE, AR 71802
Phone 870-777-6701
Manager: DARRELL ALLEN
PO BOX 667
HOPE, AR 71802
Phone 870-777-3444

Airport Operational Statistics

Aircraft based on the field: 15
Single engine airplanes: 15
    
Aircraft operations: avg 22/day *
62% transient general aviation
31% local general aviation
6% military
* for 12-month period ending 30 May 2021

Additional Remarks

FOR CD CTC FORT WORTH ARTCC AT 817-858-7584.
DEER ON & INVOF ARPT.

Instrument Procedures

NOTE: All procedures below are presented as PDF files. If you need a reader for these files, you should download the free Adobe Reader.

NOT FOR NAVIGATION. Please procure official charts for flight.
FAA instrument procedures published for use from 19 May 2022 at 0901Z to 16 June 2022 at 0900Z.

 
IAPs - Instrument Approach Procedures
RNAV (GPS) RWY 04   download (208KB)
RNAV (GPS) RWY 16   download (214KB)
RNAV (GPS) RWY 22   download (197KB)
VOR RWY 04   download (206KB)
NOTE: Special Take-Off Minimums/Departure Procedures apply   download

Other nearby airports with instrument procedures:

M77 - Howard County Airport (19 nm NW)
KTXK - Texarkana Regional Airport-Webb Field (23 nm SW)
KAGO - Ralph C Weiser Field Airport (37 nm SE)
KADF - Dexter B Florence Memorial Field Airport (37 nm NE)
KDEQ - J Lynn Helms Sevier County Airport (42 nm NW)
 
Loc | Ops | Rwys | IFR | FBO | Links
Com | Nav | Svcs | Stats | Notes
Area around M18 (Hope Municipal Airport)
 
Road maps at: MapQuest Bing Google
 
Aerial photo
WARNING: Photo may not be current or correct
Aerial photo of M18 (Hope Municipal Airport)
Photo by Danny R. Schnautz
Taken in the Spring of 2020
looking north-northwest.

Do you have a better or more recent aerial photo of Hope Municipal Airport that you would like to share? If so, please send us your photo.

 
Sectional chart

 
Airport distance calculator
Flying to Hope Municipal Airport? Find the distance to fly.

From to M18

Sunrise and sunset
Times for 26-May-2022
 Local
(UTC-5)
 Zulu
(UTC)
Morning civil twilight05:4010:40
Sunrise06:0811:08
Sunset20:1501:15
Evening civil twilight20:4301:43

Current date and time
Zulu (UTC)  27-May-2022 01:02:11
Local (UTC-5)  26-May-2022 20:02:11
 
METAR
KTXK 
23nm SW 
270053Z 33008KT 10SM CLR 24/13 A2989 RMK AO2 SLP119 T02390133
KAGO 
37nm SE 
270055Z AUTO 32005KT 10SM CLR 24/13 A2986 RMK A01
KDEQ 
42nm NW 
270053Z AUTO 33003KT 10SM CLR 21/12 A2990 RMK AO2 SLP119 T02110122
KCDH 
45nm E 
270055Z AUTO 35007KT 320V020 9SM OVC070 22/16 A2988 RMK AO2
KATA 
46nm SW 
270055Z AUTO 30005KT 8SM CLR 24/10 A2988 RMK AO2 SLP017 T02430096 $
TAF
KTXK 
23nm SW 
261720Z 2618/2718 27013G22KT P6SM SCT035 SCT250 FM270100 30009KT P6SM FEW250 FM270300 29004KT P6SM SKC FM271500 32007KT P6SM SKC
NOTAMs
Click for the latest NOTAMs
NOTAMs are issued by the DoD/FAA and will open in a separate window not controlled by AirNav.

 

 
 

Would you like to see your business listed on this page?

 If your business provides an interesting product or service to pilots, flight crews, aircraft, or users of the Hope Municipal Airport, you should consider listing it here.  To start the listing process, click on the button below
 
Add a business
 

Other Pages about Hope Municipal Airport

Update a link
 
Copyright © AirNav, LLC. All rights reserved. Privacy Policy  Contact